Time,TemperatureF,DewpointF,PressureIn,WindDirection,WindDirectionDegrees,WindSpeedMPH,WindSpeedGustMPH,Humidity,HourlyPrecipIn,Conditions,Clouds,dailyrainin,SolarRadiationWatts/m^2,SoftwareType,DateUTC
2013-04-10 00:12:00,41.0,14.0,-100.00,NW,319,2.0,7.0,33,0.00,,,0.00,0.000000,,2013-04-10 07:12:00,
2013-04-10 00:22:00,41.0,14.0,-100.00,NW,319,2.0,7.0,33,0.00,,,0.00,0.000000,,2013-04-10 07:22:00,
2013-04-10 00:32:00,41.0,14.0,-100.00,NW,319,2.0,7.0,33,0.00,,,0.00,0.000000,,2013-04-10 07:32:00,
2013-04-10 00:42:00,41.0,14.0,-100.00,NW,319,2.0,7.0,33,0.00,,,0.00,0.000000,,2013-04-10 07:42:00,
2013-04-10 01:12:00,38.0,14.0,-100.00,South,189,0.0,7.0,37,0.00,,,0.00,0.000000,,2013-04-10 08:12:00,
2013-04-10 01:22:00,38.0,14.0,-100.00,South,189,0.0,7.0,37,0.00,,,0.00,0.000000,,2013-04-10 08:22:00,
2013-04-10 01:32:00,38.0,14.0,-100.00,South,189,0.0,7.0,37,0.00,,,0.00,0.000000,,2013-04-10 08:32:00,
2013-04-10 01:42:00,38.0,14.0,-100.00,South,189,0.0,7.0,37,0.00,,,0.00,0.000000,,2013-04-10 08:42:00,
2013-04-10 02:12:00,39.0,17.0,-100.00,WSW,258,1.0,7.0,41,0.00,,,0.00,0.000000,,2013-04-10 09:12:00,
2013-04-10 02:22:00,39.0,17.0,-100.00,WSW,258,1.0,7.0,41,0.00,,,0.00,0.000000,,2013-04-10 09:22:00,
2013-04-10 02:32:00,39.0,17.0,-100.00,WSW,258,1.0,7.0,41,0.00,,,0.00,0.000000,,2013-04-10 09:32:00,
2013-04-10 02:42:00,39.0,17.0,-100.00,WSW,258,1.0,7.0,41,0.00,,,0.00,0.000000,,2013-04-10 09:42:00,
2013-04-10 03:12:00,38.0,18.0,-100.00,SW,234,6.0,8.0,43,0.00,,,0.00,0.000000,,2013-04-10 10:12:00,
2013-04-10 03:23:00,38.0,18.0,-100.00,SW,234,6.0,8.0,43,0.00,,,0.00,0.000000,,2013-04-10 10:23:00,
2013-04-10 03:33:00,38.0,18.0,-100.00,SW,234,6.0,8.0,43,0.00,,,0.00,0.000000,,2013-04-10 10:33:00,
2013-04-10 03:42:00,38.0,18.0,-100.00,SW,234,6.0,8.0,43,0.00,,,0.00,0.000000,,2013-04-10 10:42:00,
2013-04-10 04:12:00,37.0,18.0,-100.00,SW,229,6.0,7.0,46,0.00,,,0.00,0.000000,,2013-04-10 11:12:00,
2013-04-10 04:22:00,37.0,18.0,-100.00,SW,229,6.0,7.0,46,0.00,,,0.00,0.000000,,2013-04-10 11:22:00,
2013-04-10 04:32:00,37.0,18.0,-100.00,SW,229,6.0,7.0,46,0.00,,,0.00,0.000000,,2013-04-10 11:32:00,
2013-04-10 04:42:00,37.0,18.0,-100.00,SW,229,6.0,7.0,46,0.00,,,0.00,0.000000,,2013-04-10 11:42:00,
2013-04-10 07:12:00,34.0,15.0,-100.00,West,265,0.0,10.0,46,-99.99,,,0.00,5.000000,,2013-04-10 14:12:00,
2013-04-10 07:22:00,34.0,15.0,-100.00,West,265,0.0,10.0,46,-99.99,,,0.00,5.000000,,2013-04-10 14:22:00,
2013-04-10 07:32:00,34.0,15.0,-100.00,West,265,0.0,10.0,46,-99.99,,,0.00,5.000000,,2013-04-10 14:32:00,
2013-04-10 07:42:00,34.0,15.0,-100.00,West,265,0.0,10.0,46,-99.99,,,0.00,5.000000,,2013-04-10 14:42:00,
2013-04-10 08:12:00,46.0,19.0,-100.00,WSW,248,6.0,9.0,34,0.00,,,0.00,154.000000,,2013-04-10 15:12:00,
2013-04-10 08:22:00,46.0,19.0,-100.00,WSW,248,6.0,9.0,34,0.00,,,0.00,154.000000,,2013-04-10 15:22:00,
2013-04-10 08:42:00,46.0,19.0,-100.00,WSW,248,6.0,9.0,34,0.00,,,0.00,154.000000,,2013-04-10 15:42:00,
2013-04-10 09:12:00,53.0,19.0,-100.00,West,277,7.0,12.0,26,0.00,,,0.00,402.000000,,2013-04-10 16:12:00,
2013-04-10 09:42:00,53.0,19.0,-100.00,West,277,7.0,12.0,26,0.00,,,0.00,402.000000,,2013-04-10 16:42:00,
2013-04-10 10:12:00,56.0,20.0,-100.00,West,275,7.0,12.0,24,0.00,,,0.00,650.000000,,2013-04-10 17:12:00,
2013-04-10 10:22:00,56.0,20.0,-100.00,West,275,7.0,12.0,24,0.00,,,0.00,650.000000,,2013-04-10 17:22:00,
2013-04-10 10:33:00,56.0,20.0,-100.00,West,275,7.0,12.0,24,0.00,,,0.00,650.000000,,2013-04-10 17:33:00,
2013-04-10 10:42:00,56.0,20.0,-100.00,West,275,7.0,12.0,24,0.00,,,0.00,650.000000,,2013-04-10 17:42:00,
2013-04-10 11:12:00,57.0,19.0,-100.00,West,272,7.0,11.0,22,0.00,,,0.00,858.000000,,2013-04-10 18:12:00,
2013-04-10 11:22:00,57.0,19.0,-100.00,West,272,7.0,11.0,22,0.00,,,0.00,858.000000,,2013-04-10 18:22:00,
2013-04-10 11:32:00,57.0,19.0,-100.00,West,272,7.0,11.0,22,0.00,,,0.00,858.000000,,2013-04-10 18:32:00,
2013-04-10 11:42:00,57.0,19.0,-100.00,West,272,7.0,11.0,22,0.00,,,0.00,858.000000,,2013-04-10 18:42:00,
2013-04-10 12:12:00,61.0,22.0,-100.00,South,189,6.0,14.0,22,0.00,,,0.00,1061.000000,,2013-04-10 19:12:00,
2013-04-10 12:22:00,61.0,22.0,-100.00,South,189,6.0,14.0,22,0.00,,,0.00,1061.000000,,2013-04-10 19:22:00,
2013-04-10 12:32:00,61.0,22.0,-100.00,South,189,6.0,14.0,22,0.00,,,0.00,1061.000000,,2013-04-10 19:32:00,
2013-04-10 12:42:00,61.0,22.0,-100.00,South,189,6.0,14.0,22,0.00,,,0.00,1061.000000,,2013-04-10 19:42:00,
2013-04-10 13:12:00,66.0,25.0,-100.00,WNW,300,5.0,18.0,21,0.00,,,0.00,1145.000000,,2013-04-10 20:12:00,
2013-04-10 13:23:00,66.0,25.0,-100.00,WNW,300,5.0,18.0,21,0.00,,,0.00,1145.000000,,2013-04-10 20:23:00,
2013-04-10 13:32:00,66.0,25.0,-100.00,WNW,300,5.0,18.0,21,0.00,,,0.00,1145.000000,,2013-04-10 20:32:00,
2013-04-10 13:42:00,66.0,25.0,-100.00,WNW,300,5.0,18.0,21,0.00,,,0.00,1145.000000,,2013-04-10 20:42:00,
2013-04-10 14:12:00,68.0,25.0,-100.00,NW,304,3.0,13.0,20,0.00,,,0.00,1152.000000,,2013-04-10 21:12:00,
2013-04-10 14:22:00,68.0,25.0,-100.00,NW,304,3.0,13.0,20,0.00,,,0.00,1152.000000,,2013-04-10 21:22:00,
2013-04-10 14:32:00,68.0,25.0,-100.00,NW,304,3.0,13.0,20,0.00,,,0.00,1152.000000,,2013-04-10 21:32:00,
2013-04-10 14:42:00,68.0,25.0,-100.00,NW,304,3.0,13.0,20,0.00,,,0.00,1152.000000,,2013-04-10 21:42:00,
2013-04-10 15:12:00,70.0,28.0,-100.00,NNW,341,3.0,15.0,21,0.00,,,0.00,1091.000000,,2013-04-10 22:12:00,
2013-04-10 15:22:00,70.0,28.0,-100.00,NNW,341,3.0,15.0,21,0.00,,,0.00,1091.000000,,2013-04-10 22:22:00,
2013-04-10 15:33:00,70.0,28.0,-100.00,NNW,341,3.0,15.0,21,0.00,,,0.00,1091.000000,,2013-04-10 22:33:00,
2013-04-10 15:42:00,70.0,28.0,-100.00,NNW,341,3.0,15.0,21,0.00,,,0.00,1091.000000,,2013-04-10 22:42:00,
2013-04-10 16:12:00,72.0,29.0,-100.00,SSW,206,3.0,14.0,20,0.00,,,0.00,963.000000,,2013-04-10 23:12:00,
2013-04-10 16:22:00,72.0,29.0,-100.00,SSW,206,3.0,14.0,20,0.00,,,0.00,963.000000,,2013-04-10 23:22:00,
2013-04-10 16:32:00,72.0,29.0,-100.00,SSW,206,3.0,14.0,20,0.00,,,0.00,963.000000,,2013-04-10 23:32:00,
2013-04-10 16:42:00,72.0,29.0,-100.00,SSW,206,3.0,14.0,20,0.00,,,0.00,963.000000,,2013-04-10 23:42:00,
2013-04-10 17:12:00,74.0,28.0,-100.00,West,272,4.0,17.0,18,0.00,,,-99.99,774.000000,,2013-04-11 00:12:00,
2013-04-10 17:22:00,74.0,28.0,-100.00,West,272,4.0,17.0,18,0.00,,,-99.99,774.000000,,2013-04-11 00:22:00,
2013-04-10 17:32:00,74.0,28.0,-100.00,West,272,4.0,17.0,18,0.00,,,-99.99,774.000000,,2013-04-11 00:32:00,
2013-04-10 17:42:00,74.0,28.0,-100.00,West,272,4.0,17.0,18,0.00,,,-99.99,774.000000,,2013-04-11 00:42:00,
2013-04-10 18:12:00,71.0,24.0,-100.00,West,263,4.0,13.0,17,0.00,,,0.00,477.000000,,2013-04-11 01:12:00,
2013-04-10 18:22:00,71.0,24.0,-100.00,West,263,4.0,13.0,17,0.00,,,0.00,477.000000,,2013-04-11 01:22:00,
2013-04-10 18:32:00,71.0,24.0,-100.00,West,263,4.0,13.0,17,0.00,,,0.00,477.000000,,2013-04-11 01:32:00,
2013-04-10 18:42:00,71.0,24.0,-100.00,West,263,4.0,13.0,17,0.00,,,0.00,477.000000,,2013-04-11 01:42:00,
2013-04-10 19:12:00,71.0,24.0,-100.00,NW,310,2.0,8.0,17,0.00,,,0.00,194.000000,,2013-04-11 02:12:00,
2013-04-10 19:22:00,71.0,24.0,-100.00,NW,310,2.0,8.0,17,0.00,,,0.00,194.000000,,2013-04-11 02:22:00,
2013-04-10 19:32:00,71.0,24.0,-100.00,NW,310,2.0,8.0,17,0.00,,,0.00,194.000000,,2013-04-11 02:32:00,
2013-04-10 19:42:00,71.0,24.0,-100.00,NW,310,2.0,8.0,17,0.00,,,0.00,194.000000,,2013-04-11 02:42:00,
2013-04-10 20:02:00,68.0,25.0,-100.00,NW,318,5.0,9.0,20,0.00,,,0.00,22.000000,,2013-04-11 03:02:00,
2013-04-10 20:12:00,68.0,25.0,-100.00,NW,318,5.0,9.0,20,0.00,,,0.00,22.000000,,2013-04-11 03:12:00,
2013-04-10 20:22:00,68.0,25.0,-100.00,NW,318,5.0,9.0,20,0.00,,,0.00,22.000000,,2013-04-11 03:22:00,
2013-04-10 20:33:00,68.0,25.0,-100.00,NW,318,5.0,9.0,20,0.00,,,0.00,22.000000,,2013-04-11 03:33:00,
2013-04-10 20:43:00,68.0,25.0,-100.00,NW,318,5.0,9.0,20,0.00,,,0.00,22.000000,,2013-04-11 03:43:00,
2013-04-10 21:03:00,64.0,30.0,-100.00,West,277,10.0,20.0,28,0.00,,,0.00,0.000000,,2013-04-11 04:03:00,
2013-04-10 21:12:00,64.0,30.0,-100.00,West,277,10.0,20.0,28,0.00,,,0.00,0.000000,,2013-04-11 04:12:00,
2013-04-10 21:22:00,64.0,30.0,-100.00,West,277,10.0,20.0,28,0.00,,,0.00,0.000000,,2013-04-11 04:22:00,
2013-04-10 21:33:00,64.0,30.0,-100.00,West,277,10.0,20.0,28,0.00,,,0.00,0.000000,,2013-04-11 04:33:00,
2013-04-10 21:42:00,64.0,30.0,-100.00,West,277,10.0,20.0,28,0.00,,,0.00,0.000000,,2013-04-11 04:42:00,
2013-04-10 22:12:00,64.0,28.0,-100.00,WNW,285,15.0,22.0,26,0.00,,,0.00,0.000000,,2013-04-11 05:12:00,
2013-04-10 22:22:00,64.0,28.0,-100.00,WNW,285,15.0,22.0,26,0.00,,,0.00,0.000000,,2013-04-11 05:22:00,
2013-04-10 22:32:00,64.0,28.0,-100.00,WNW,285,15.0,22.0,26,0.00,,,0.00,0.000000,,2013-04-11 05:32:00,
2013-04-10 22:42:00,64.0,28.0,-100.00,WNW,285,15.0,22.0,26,0.00,,,0.00,0.000000,,2013-04-11 05:42:00,
2013-04-10 23:12:00,61.0,24.0,-100.00,West,281,14.0,25.0,24,0.00,,,0.00,0.000000,,2013-04-11 06:12:00,
2013-04-10 23:22:00,61.0,24.0,-100.00,West,281,14.0,25.0,24,0.00,,,0.00,0.000000,,2013-04-11 06:22:00,
2013-04-10 23:32:00,61.0,24.0,-100.00,West,281,14.0,25.0,24,0.00,,,0.00,0.000000,,2013-04-11 06:32:00,